Time;durP1;ratioP1;P1;durP2;ratioP2;P2;SDS_P1;SDS_P2;PMS_P1;PMS_P2;Temp;Humidity;BMP_temperature;BMP_pressure;BME280_temperature;BME280_humidity;BME280_pressure;Samples;Min_cycle;Max_cycle;Signal;HPM_P1;HPM_P2
2021/10/30 00:01:16;;;;;;;;;;;23.90;30.80;;;;;;479653;248;1045;-71
2021/10/30 00:03:17;;;;;;;;;;;24.10;30.80;;;;;;479667;248;982;-71
2021/10/30 00:05:19;;;;;;;;;;;23.80;31.00;;;;;;479746;248;1024;-71
2021/10/30 00:07:20;;;;;;;;;;;24.00;30.70;;;;;;479556;248;2135;-71
2021/10/30 00:09:21;;;;;;;;;;;24.00;30.70;;;;;;479671;248;1182;-72
2021/10/30 00:11:23;;;;;;;;;;;23.60;30.90;;;;;;479593;248;973;-71
2021/10/30 00:13:24;;;;;;;;;;;24.10;30.60;;;;;;479689;248;1115;-71
2021/10/30 00:15:26;;;;;;;;;;;23.80;30.80;;;;;;479693;248;1053;-71
2021/10/30 00:17:27;;;;;;;;;;;23.60;31.00;;;;;;479643;248;1141;-71
2021/10/30 00:19:28;;;;;;;;;;;23.90;30.70;;;;;;479649;248;945;-72
2021/10/30 00:21:30;;;;;;;;;;;23.80;30.90;;;;;;479632;245;1297;-71
2021/10/30 00:23:31;;;;;;;;;;;23.90;30.50;;;;;;479644;248;1153;-71
2021/10/30 00:25:33;;;;;;;;;;;23.90;30.90;;;;;;479674;248;1052;-71
2021/10/30 00:27:34;;;;;;;;;;;23.60;30.90;;;;;;479562;248;2195;-71
2021/10/30 00:29:35;;;;;;;;;;;24.00;30.60;;;;;;479651;248;931;-71
2021/10/30 00:31:37;;;;;;;;;;;23.90;30.80;;;;;;479572;248;1225;-71
2021/10/30 00:33:38;;;;;;;;;;;23.80;30.60;;;;;;479622;248;951;-71
2021/10/30 00:35:40;;;;;;;;;;;24.30;30.40;;;;;;479674;248;1067;-71
2021/10/30 00:37:41;;;;;;;;;;;24.00;30.70;;;;;;479651;248;1078;-71
2021/10/30 00:39:42;;;;;;;;;;;23.90;30.80;;;;;;479672;248;1191;-71
2021/10/30 00:41:44;;;;;;;;;;;24.10;30.40;;;;;;479548;248;1205;-71
2021/10/30 00:43:45;;;;;;;;;;;23.90;30.50;;;;;;479580;248;952;-71
2021/10/30 00:45:46;;;;;;;;;;;24.10;30.60;;;;;;479588;248;2206;-71
2021/10/30 00:47:48;;;;;;;;;;;23.70;30.90;;;;;;479560;248;1167;-71
2021/10/30 00:49:49;;;;;;;;;;;23.90;30.70;;;;;;479606;248;929;-71
2021/10/30 00:51:50;;;;;;;;;;;23.80;30.70;;;;;;479585;248;1213;-71
2021/10/30 00:53:52;;;;;;;;;;;23.80;30.90;;;;;;479678;248;1110;-71
2021/10/30 00:55:53;;;;;;;;;;;23.90;30.60;;;;;;479547;248;1260;-71
2021/10/30 00:57:54;;;;;;;;;;;23.90;30.60;;;;;;479626;248;1079;-71
2021/10/30 00:59:56;;;;;;;;;;;23.90;30.40;;;;;;479597;248;948;-71
2021/10/30 01:01:57;;;;;;;;;;;23.90;30.50;;;;;;479592;248;1153;-71
2021/10/30 01:03:58;;;;;;;;;;;23.90;30.50;;;;;;479662;248;1048;-71
2021/10/30 01:06:00;;;;;;;;;;;24.10;30.30;;;;;;479618;246;2123;-71
2021/10/30 01:08:01;;;;;;;;;;;23.80;30.60;;;;;;479616;248;961;-71
2021/10/30 01:10:02;;;;;;;;;;;24.00;30.40;;;;;;479590;248;1200;-71
2021/10/30 01:12:04;;;;;;;;;;;24.10;30.30;;;;;;479540;248;1114;-72
2021/10/30 01:14:05;;;;;;;;;;;24.00;30.30;;;;;;479584;248;1099;-71
2021/10/30 01:16:06;;;;;;;;;;;24.10;30.10;;;;;;479608;245;1354;-71
2021/10/30 01:18:08;;;;;;;;;;;23.90;30.30;;;;;;479652;248;1067;-71
2021/10/30 01:20:09;;;;;;;;;;;24.00;30.40;;;;;;479671;248;919;-71
2021/10/30 01:22:10;;;;;;;;;;;23.70;30.50;;;;;;479590;248;1211;-72
2021/10/30 01:24:12;;;;;;;;;;;24.10;30.40;;;;;;479579;248;1066;-71
2021/10/30 01:26:13;;;;;;;;;;;23.80;30.40;;;;;;479521;248;2122;-71
2021/10/30 01:28:14;;;;;;;;;;;24.10;30.20;;;;;;479585;248;1192;-71
2021/10/30 01:30:16;;;;;;;;;;;24.00;30.50;;;;;;479591;248;1092;-71
2021/10/30 01:32:17;;;;;;;;;;;24.30;30.00;;;;;;479646;248;1206;-71
2021/10/30 01:34:19;;;;;;;;;;;24.30;30.00;;;;;;479641;248;1109;-71
2021/10/30 01:36:20;;;;;;;;;;;24.50;29.90;;;;;;479651;248;1438;-72
2021/10/30 01:38:22;;;;;;;;;;;24.50;29.80;;;;;;479658;248;1124;-71
2021/10/30 01:40:23;;;;;;;;;;;23.90;30.30;;;;;;479639;248;1322;-71
2021/10/30 01:42:24;;;;;;;;;;;24.00;30.20;;;;;;479530;248;1127;-72
2021/10/30 01:44:25;;;;;;;;;;;24.10;30.20;;;;;;479599;248;946;-71
2021/10/30 01:46:27;;;;;;;;;;;24.10;30.30;;;;;;479536;248;2151;-71
2021/10/30 01:48:28;;;;;;;;;;;23.90;30.50;;;;;;479630;248;1248;-71
2021/10/30 01:50:29;;;;;;;;;;;24.00;30.30;;;;;;479631;248;1191;-71
2021/10/30 01:52:31;;;;;;;;;;;24.10;30.10;;;;;;479568;248;1210;-71
2021/10/30 01:54:32;;;;;;;;;;;23.90;30.20;;;;;;479668;248;1069;-71
2021/10/30 01:56:33;;;;;;;;;;;24.40;30.00;;;;;;479537;248;1376;-71
2021/10/30 01:58:35;;;;;;;;;;;24.00;30.20;;;;;;479654;248;1041;-71
2021/10/30 02:00:36;;;;;;;;;;;24.00;30.00;;;;;;479574;248;1206;-71
2021/10/30 02:02:37;;;;;;;;;;;24.30;30.00;;;;;;479605;248;1209;-71
2021/10/30 02:04:39;;;;;;;;;;;24.20;30.00;;;;;;479648;248;1064;-71
2021/10/30 02:06:40;;;;;;;;;;;24.10;30.00;;;;;;479565;245;2126;-71
2021/10/30 02:08:41;;;;;;;;;;;24.20;30.00;;;;;;479626;248;1057;-71
2021/10/30 02:10:42;;;;;;;;;;;24.30;30.00;;;;;;479574;248;1180;-71
2021/10/30 02:12:44;;;;;;;;;;;23.90;30.30;;;;;;479579;248;1160;-72
2021/10/30 02:14:45;;;;;;;;;;;23.90;30.10;;;;;;479624;248;1055;-71
2021/10/30 02:16:46;;;;;;;;;;;24.30;30.00;;;;;;479534;245;1165;-71
2021/10/30 02:18:48;;;;;;;;;;;24.00;30.10;;;;;;479510;248;1082;-71
2021/10/30 02:20:49;;;;;;;;;;;24.50;29.80;;;;;;479554;248;1178;-71
2021/10/30 02:22:52;;;;;;;;;;;24.30;29.90;;;;;;479553;248;1036;-71
2021/10/30 02:24:53;;;;;;;;;;;24.50;29.70;;;;;;479631;248;1287;-71
2021/10/30 02:26:54;;;;;;;;;;;24.50;29.70;;;;;;479520;248;2127;-71
2021/10/30 02:28:56;;;;;;;;;;;23.90;30.00;;;;;;479608;248;964;-71
2021/10/30 02:30:57;;;;;;;;;;;24.10;30.10;;;;;;479631;248;1141;-71
2021/10/30 02:33:00;;;;;;;;;;;24.10;30.00;;;;;;479639;248;1061;-71
2021/10/30 02:35:00;;;;;;;;;;;23.90;30.20;;;;;;479581;248;1430;-71
2021/10/30 02:37:01;;;;;;;;;;;24.00;30.10;;;;;;479576;248;1126;-71
2021/10/30 02:39:02;;;;;;;;;;;24.30;29.90;;;;;;479580;248;1011;-71
2021/10/30 02:41:04;;;;;;;;;;;23.90;30.10;;;;;;479454;248;1283;-71
2021/10/30 02:43:05;;;;;;;;;;;24.30;30.00;;;;;;479550;248;1078;-71
2021/10/30 02:45:06;;;;;;;;;;;24.20;30.00;;;;;;479588;248;1146;-71
2021/10/30 02:47:08;;;;;;;;;;;24.40;29.80;;;;;;479523;248;2131;-71
2021/10/30 02:49:09;;;;;;;;;;;24.30;29.80;;;;;;479611;248;964;-71
2021/10/30 02:51:10;;;;;;;;;;;24.40;29.80;;;;;;479539;245;1184;-71
2021/10/30 02:53:12;;;;;;;;;;;24.40;29.70;;;;;;479568;248;1071;-71
2021/10/30 02:55:13;;;;;;;;;;;24.30;29.80;;;;;;479646;248;1103;-71
2021/10/30 02:57:14;;;;;;;;;;;24.10;29.90;;;;;;479497;245;1217;-71
2021/10/30 02:59:16;;;;;;;;;;;24.30;29.90;;;;;;479558;248;989;-71
2021/10/30 03:01:17;;;;;;;;;;;24.00;30.00;;;;;;479556;248;1338;-71
2021/10/30 03:03:18;;;;;;;;;;;24.20;29.90;;;;;;479579;248;1209;-71
2021/10/30 03:05:20;;;;;;;;;;;24.40;29.70;;;;;;479622;248;1004;-71
2021/10/30 03:07:22;;;;;;;;;;;24.30;29.70;;;;;;479637;248;2186;-71
2021/10/30 03:09:23;;;;;;;;;;;24.50;29.50;;;;;;479700;248;1386;-71
2021/10/30 03:11:24;;;;;;;;;;;24.60;29.50;;;;;;479512;248;1217;-71
2021/10/30 03:13:25;;;;;;;;;;;24.60;29.40;;;;;;479594;248;1306;-71
2021/10/30 03:15:26;;;;;;;;;;;24.70;29.40;;;;;;479660;248;971;-72
2021/10/30 03:17:28;;;;;;;;;;;24.60;29.40;;;;;;479625;248;1145;-71
2021/10/30 03:19:29;;;;;;;;;;;24.50;29.40;;;;;;479735;248;1073;-71
2021/10/30 03:21:30;;;;;;;;;;;24.50;29.40;;;;;;479644;248;1195;-71
2021/10/30 03:23:32;;;;;;;;;;;24.50;29.50;;;;;;479612;248;1147;-71
2021/10/30 03:25:34;;;;;;;;;;;24.40;29.60;;;;;;479694;248;1213;-71
2021/10/30 03:27:34;;;;;;;;;;;24.40;29.60;;;;;;479539;248;2197;-72
2021/10/30 03:29:36;;;;;;;;;;;24.20;29.70;;;;;;479624;248;1039;-71
2021/10/30 03:31:37;;;;;;;;;;;24.30;29.70;;;;;;479571;248;1207;-71
2021/10/30 03:33:38;;;;;;;;;;;24.10;29.80;;;;;;479634;248;956;-71
2021/10/30 03:35:40;;;;;;;;;;;24.20;29.80;;;;;;479629;248;1553;-71
2021/10/30 03:37:41;;;;;;;;;;;24.40;29.60;;;;;;479530;248;1190;-71
2021/10/30 03:39:42;;;;;;;;;;;24.40;29.60;;;;;;479651;248;1037;-71
2021/10/30 03:41:44;;;;;;;;;;;24.10;29.50;;;;;;479489;248;1249;-71
2021/10/30 03:43:45;;;;;;;;;;;24.00;30.00;;;;;;479623;248;968;-71
2021/10/30 03:45:46;;;;;;;;;;;24.20;29.80;;;;;;479590;248;1346;-71
2021/10/30 03:47:48;;;;;;;;;;;24.10;29.80;;;;;;479609;248;2151;-71
2021/10/30 03:49:49;;;;;;;;;;;24.30;29.70;;;;;;479655;248;1074;-71
2021/10/30 03:51:50;;;;;;;;;;;24.30;29.60;;;;;;479644;246;1188;-71
2021/10/30 03:53:52;;;;;;;;;;;24.10;29.80;;;;;;479685;248;1065;-72
2021/10/30 03:55:53;;;;;;;;;;;24.00;29.70;;;;;;479586;248;1139;-71
2021/10/30 03:57:54;;;;;;;;;;;24.30;29.70;;;;;;479584;248;1319;-72
2021/10/30 03:59:56;;;;;;;;;;;24.00;29.70;;;;;;479618;248;985;-71
2021/10/30 04:01:57;;;;;;;;;;;24.30;29.70;;;;;;479607;248;1040;-71
2021/10/30 04:03:58;;;;;;;;;;;24.10;29.90;;;;;;479707;248;947;-71
2021/10/30 04:06:00;;;;;;;;;;;24.10;29.70;;;;;;479601;248;1193;-72
2021/10/30 04:08:01;;;;;;;;;;;24.30;29.70;;;;;;479635;248;2115;-71
2021/10/30 04:10:02;;;;;;;;;;;24.30;29.70;;;;;;479698;248;1097;-71
2021/10/30 04:12:04;;;;;;;;;;;24.40;29.50;;;;;;479545;248;1227;-71
2021/10/30 04:14:05;;;;;;;;;;;24.50;29.40;;;;;;479576;248;971;-71
2021/10/30 04:16:06;;;;;;;;;;;24.40;29.40;;;;;;479594;245;1211;-71
2021/10/30 04:18:08;;;;;;;;;;;24.60;29.30;;;;;;479657;248;1012;-71
2021/10/30 04:20:10;;;;;;;;;;;24.50;29.40;;;;;;479694;248;1072;-71
2021/10/30 04:22:10;;;;;;;;;;;24.40;29.30;;;;;;479583;248;1455;-71
2021/10/30 04:24:12;;;;;;;;;;;24.40;29.40;;;;;;479685;248;1063;-71
2021/10/30 04:26:13;;;;;;;;;;;24.10;29.60;;;;;;479615;248;1275;-71
2021/10/30 04:28:14;;;;;;;;;;;24.30;29.50;;;;;;479555;248;2191;-71
2021/10/30 04:30:16;;;;;;;;;;;24.40;29.30;;;;;;479631;248;941;-71
2021/10/30 04:32:17;;;;;;;;;;;24.40;29.40;;;;;;479616;248;1212;-71
2021/10/30 04:34:18;;;;;;;;;;;24.20;29.50;;;;;;479638;248;1076;-71
2021/10/30 04:36:20;;;;;;;;;;;24.20;29.50;;;;;;479628;245;1227;-71
2021/10/30 04:38:22;;;;;;;;;;;24.30;29.50;;;;;;479594;248;1068;-72
2021/10/30 04:40:22;;;;;;;;;;;24.50;29.30;;;;;;479546;248;1385;-71
2021/10/30 04:42:24;;;;;;;;;;;24.40;29.30;;;;;;479545;248;1162;-71
2021/10/30 04:44:25;;;;;;;;;;;24.40;29.20;;;;;;479632;248;967;-71
2021/10/30 04:46:26;;;;;;;;;;;24.40;29.40;;;;;;479599;248;1194;-71
2021/10/30 04:48:28;;;;;;;;;;;24.30;29.30;;;;;;479655;248;2197;-71
2021/10/30 04:50:29;;;;;;;;;;;24.40;29.30;;;;;;479565;248;1221;-71
2021/10/30 04:52:31;;;;;;;;;;;24.40;29.30;;;;;;479555;248;1225;-71
2021/10/30 04:54:32;;;;;;;;;;;24.40;29.30;;;;;;479699;248;976;-71
2021/10/30 04:56:33;;;;;;;;;;;24.30;29.30;;;;;;479593;248;1204;-71
2021/10/30 04:58:34;;;;;;;;;;;24.40;29.20;;;;;;479624;248;1091;-71
2021/10/30 05:00:36;;;;;;;;;;;24.40;29.30;;;;;;479619;248;1123;-71
2021/10/30 05:02:37;;;;;;;;;;;24.40;29.20;;;;;;479569;248;1176;-71
2021/10/30 05:04:38;;;;;;;;;;;24.30;29.20;;;;;;479628;248;992;-71
2021/10/30 05:06:40;;;;;;;;;;;24.50;29.20;;;;;;479539;248;1212;-71
2021/10/30 05:08:41;;;;;;;;;;;23.90;29.50;;;;;;479610;248;2178;-71
2021/10/30 05:10:42;;;;;;;;;;;24.10;29.40;;;;;;479549;248;1137;-71
2021/10/30 05:12:44;;;;;;;;;;;24.10;29.40;;;;;;479558;248;1191;-72
2021/10/30 05:14:45;;;;;;;;;;;24.40;29.20;;;;;;479598;248;970;-71
2021/10/30 05:16:48;;;;;;;;;;;24.10;29.40;;;;;;479551;248;1203;-71
2021/10/30 05:18:48;;;;;;;;;;;24.30;29.20;;;;;;479571;248;1459;-71
2021/10/30 05:20:49;;;;;;;;;;;24.10;29.20;;;;;;479659;247;1229;-71
2021/10/30 05:22:50;;;;;;;;;;;24.30;29.20;;;;;;479608;248;1160;-71
2021/10/30 05:24:52;;;;;;;;;;;24.30;29.10;;;;;;479706;248;1200;-71
2021/10/30 05:26:53;;;;;;;;;;;24.30;29.10;;;;;;479543;248;1180;-71
2021/10/30 05:28:55;;;;;;;;;;;24.40;29.00;;;;;;479660;248;2374;-72
2021/10/30 05:30:56;;;;;;;;;;;24.60;28.90;;;;;;479613;248;1191;-71
2021/10/30 05:32:57;;;;;;;;;;;24.60;28.80;;;;;;479571;248;1148;-71
2021/10/30 05:34:59;;;;;;;;;;;24.60;28.70;;;;;;479636;248;1019;-71
2021/10/30 05:37:00;;;;;;;;;;;24.50;28.70;;;;;;479497;248;1264;-71
2021/10/30 05:39:01;;;;;;;;;;;24.10;29.00;;;;;;479629;248;952;-71
2021/10/30 05:41:02;;;;;;;;;;;24.30;29.00;;;;;;479578;248;1030;-71
2021/10/30 05:43:04;;;;;;;;;;;24.40;28.90;;;;;;479627;248;1313;-71
2021/10/30 05:45:05;;;;;;;;;;;24.30;28.90;;;;;;479641;248;1041;-71
2021/10/30 05:47:08;;;;;;;;;;;24.30;28.90;;;;;;479624;248;1061;-71
2021/10/30 05:49:10;;;;;;;;;;;24.30;28.90;;;;;;479567;248;2126;-71
2021/10/30 05:51:10;;;;;;;;;;;24.40;28.90;;;;;;479565;248;1496;-71
2021/10/30 05:53:11;;;;;;;;;;;24.20;28.80;;;;;;479655;248;965;-72
2021/10/30 05:55:13;;;;;;;;;;;23.90;29.20;;;;;;479658;248;949;-71
2021/10/30 05:57:14;;;;;;;;;;;24.20;28.90;;;;;;479577;248;1107;-71
2021/10/30 05:59:15;;;;;;;;;;;24.30;28.80;;;;;;479749;248;1179;-71
2021/10/30 06:01:17;;;;;;;;;;;24.30;28.80;;;;;;479641;248;1089;-71
2021/10/30 06:03:18;;;;;;;;;;;24.30;28.70;;;;;;479651;248;1132;-71
2021/10/30 06:05:19;;;;;;;;;;;24.30;28.80;;;;;;479662;248;964;-71
2021/10/30 06:07:21;;;;;;;;;;;24.20;28.90;;;;;;479548;248;1126;-71
2021/10/30 06:09:22;;;;;;;;;;;24.30;28.80;;;;;;479596;248;2178;-71
2021/10/30 06:11:23;;;;;;;;;;;24.40;28.70;;;;;;479514;248;1249;-71
2021/10/30 06:13:25;;;;;;;;;;;24.10;28.90;;;;;;479652;248;1189;-71
2021/10/30 06:15:26;;;;;;;;;;;24.20;28.80;;;;;;479661;248;1032;-71
2021/10/30 06:17:27;;;;;;;;;;;24.30;28.80;;;;;;479594;248;1220;-71
2021/10/30 06:19:29;;;;;;;;;;;24.10;28.80;;;;;;479716;248;1113;-71
2021/10/30 06:21:30;;;;;;;;;;;24.20;28.80;;;;;;479615;248;1207;-71
2021/10/30 06:23:31;;;;;;;;;;;23.90;28.90;;;;;;479609;248;964;-71
2021/10/30 06:25:33;;;;;;;;;;;24.10;28.90;;;;;;479639;248;1097;-71
2021/10/30 06:27:34;;;;;;;;;;;24.00;29.00;;;;;;479532;248;1042;-71
2021/10/30 06:29:36;;;;;;;;;;;24.00;29.00;;;;;;479613;248;2131;-73
2021/10/30 06:31:37;;;;;;;;;;;24.30;28.70;;;;;;479579;245;1199;-71
2021/10/30 06:33:38;;;;;;;;;;;24.40;28.70;;;;;;479641;248;1094;-71
2021/10/30 06:35:39;;;;;;;;;;;24.50;28.60;;;;;;479673;248;1013;-71
2021/10/30 06:37:41;;;;;;;;;;;24.20;28.70;;;;;;479564;248;1049;-71
2021/10/30 06:39:42;;;;;;;;;;;24.20;28.80;;;;;;479658;248;1357;-71
2021/10/30 06:41:43;;;;;;;;;;;23.80;28.90;;;;;;479542;246;1313;-71
2021/10/30 06:43:45;;;;;;;;;;;23.80;29.10;;;;;;479632;248;1158;-71
2021/10/30 06:45:46;;;;;;;;;;;24.00;28.90;;;;;;479656;248;936;-71
2021/10/30 06:47:48;;;;;;;;;;;24.20;28.90;;;;;;479612;248;1085;-71
2021/10/30 06:49:50;;;;;;;;;;;24.30;28.70;;;;;;479711;248;2185;-71
2021/10/30 06:51:51;;;;;;;;;;;24.30;28.70;;;;;;479578;248;1483;-71
2021/10/30 06:53:52;;;;;;;;;;;24.30;28.70;;;;;;479544;248;1531;-71
2021/10/30 06:55:54;;;;;;;;;;;24.20;28.70;;;;;;479612;248;1223;-71
2021/10/30 06:57:54;;;;;;;;;;;24.30;28.70;;;;;;479509;248;1435;-72
2021/10/30 06:59:56;;;;;;;;;;;24.10;28.80;;;;;;479634;248;1197;-71
2021/10/30 07:01:57;;;;;;;;;;;24.20;28.70;;;;;;479567;248;1162;-71
2021/10/30 07:03:58;;;;;;;;;;;24.20;28.60;;;;;;479620;248;956;-71
2021/10/30 07:06:00;;;;;;;;;;;24.10;28.80;;;;;;479562;248;1227;-71
2021/10/30 07:08:01;;;;;;;;;;;24.10;28.80;;;;;;479718;248;1196;-71
2021/10/30 07:10:02;;;;;;;;;;;24.10;28.80;;;;;;479688;248;2213;-71
2021/10/30 07:12:04;;;;;;;;;;;24.20;28.70;;;;;;479562;248;1206;-72
2021/10/30 07:14:05;;;;;;;;;;;24.00;28.80;;;;;;479597;248;1179;-71
2021/10/30 07:16:06;;;;;;;;;;;24.10;28.80;;;;;;479555;248;1216;-71
2021/10/30 07:18:08;;;;;;;;;;;24.10;28.90;;;;;;479646;248;1152;-71
2021/10/30 07:20:09;;;;;;;;;;;24.10;28.80;;;;;;479693;248;1268;-71
2021/10/30 07:22:10;;;;;;;;;;;24.10;28.60;;;;;;479593;248;1343;-71
2021/10/30 07:24:12;;;;;;;;;;;24.00;29.00;;;;;;479630;248;952;-71
2021/10/30 07:26:13;;;;;;;;;;;24.30;28.60;;;;;;479530;248;1219;-71
2021/10/30 07:28:15;;;;;;;;;;;23.90;28.80;;;;;;479662;248;2111;-71
2021/10/30 07:30:16;;;;;;;;;;;24.30;28.70;;;;;;479688;248;1425;-71
2021/10/30 07:32:18;;;;;;;;;;;24.10;28.70;;;;;;479641;248;1208;-71
2021/10/30 07:34:19;;;;;;;;;;;24.30;28.60;;;;;;479684;248;1557;-71
2021/10/30 07:36:20;;;;;;;;;;;24.40;28.50;;;;;;479594;248;1202;-71
2021/10/30 07:38:23;;;;;;;;;;;24.30;28.50;;;;;;479701;248;976;-71
2021/10/30 07:40:23;;;;;;;;;;;24.40;28.50;;;;;;479674;248;1559;-71
2021/10/30 07:42:25;;;;;;;;;;;24.40;28.50;;;;;;479516;248;1213;-71
2021/10/30 07:44:26;;;;;;;;;;;24.40;28.40;;;;;;479624;248;1061;-71
2021/10/30 07:46:27;;;;;;;;;;;24.10;28.60;;;;;;479537;246;1277;-71
2021/10/30 07:48:29;;;;;;;;;;;24.30;28.60;;;;;;479671;248;2147;-71
2021/10/30 07:50:30;;;;;;;;;;;24.30;28.50;;;;;;479687;248;971;-71
2021/10/30 07:52:31;;;;;;;;;;;24.20;28.70;;;;;;479606;248;1227;-72
2021/10/30 07:54:33;;;;;;;;;;;24.20;28.70;;;;;;479684;248;976;-72
2021/10/30 07:56:34;;;;;;;;;;;24.10;28.60;;;;;;479654;248;1193;-71
2021/10/30 07:58:36;;;;;;;;;;;24.20;28.60;;;;;;479640;248;1049;-71
2021/10/30 08:00:37;;;;;;;;;;;24.30;28.60;;;;;;479593;248;1113;-71
2021/10/30 08:02:38;;;;;;;;;;;23.90;28.70;;;;;;479597;248;1078;-71
2021/10/30 08:04:40;;;;;;;;;;;24.10;28.80;;;;;;479714;248;929;-71
2021/10/30 08:06:41;;;;;;;;;;;24.00;28.80;;;;;;479661;248;1364;-71
2021/10/30 08:08:42;;;;;;;;;;;24.10;28.80;;;;;;479659;248;2139;-71
2021/10/30 08:10:44;;;;;;;;;;;24.20;28.70;;;;;;479603;248;1226;-71
2021/10/30 08:12:46;;;;;;;;;;;24.20;28.60;;;;;;479595;248;1063;-71
2021/10/30 08:14:46;;;;;;;;;;;24.30;28.60;;;;;;479677;248;1418;-71
2021/10/30 08:16:48;;;;;;;;;;;24.10;28.70;;;;;;479642;248;1151;-71
2021/10/30 08:18:49;;;;;;;;;;;24.00;28.80;;;;;;479646;248;1068;-71
2021/10/30 08:20:50;;;;;;;;;;;24.10;28.80;;;;;;479668;248;1100;-71
2021/10/30 08:22:52;;;;;;;;;;;24.10;28.80;;;;;;479613;248;1181;-71
2021/10/30 08:24:53;;;;;;;;;;;24.20;28.70;;;;;;479679;248;1044;-71
2021/10/30 08:26:54;;;;;;;;;;;24.20;28.70;;;;;;479606;248;1187;-71
2021/10/30 08:28:56;;;;;;;;;;;24.20;28.70;;;;;;479650;248;2194;-71
2021/10/30 08:30:57;;;;;;;;;;;24.30;28.60;;;;;;479569;248;1185;-71
2021/10/30 08:32:58;;;;;;;;;;;24.20;28.80;;;;;;479605;248;1134;-71
2021/10/30 08:35:00;;;;;;;;;;;24.20;28.80;;;;;;479674;248;1061;-71
2021/10/30 08:37:01;;;;;;;;;;;24.20;28.70;;;;;;479600;248;1201;-72
2021/10/30 08:39:03;;;;;;;;;;;24.20;28.70;;;;;;479594;248;996;-71
2021/10/30 08:41:04;;;;;;;;;;;24.20;28.90;;;;;;479601;248;1148;-71
2021/10/30 08:43:05;;;;;;;;;;;24.10;28.90;;;;;;479666;248;1047;-71
2021/10/30 08:45:07;;;;;;;;;;;24.20;28.90;;;;;;479665;248;1205;-71
2021/10/30 08:47:08;;;;;;;;;;;24.10;28.80;;;;;;479570;248;1214;-71
2021/10/30 08:49:10;;;;;;;;;;;24.10;29.00;;;;;;479668;248;2114;-71
2021/10/30 08:51:10;;;;;;;;;;;23.90;29.20;;;;;;479492;245;1430;-72
2021/10/30 08:53:12;;;;;;;;;;;24.10;29.00;;;;;;479590;248;1162;-71
2021/10/30 08:55:13;;;;;;;;;;;24.20;28.90;;;;;;479727;248;1222;-71
2021/10/30 08:57:14;;;;;;;;;;;23.80;29.20;;;;;;479599;248;1094;-71
2021/10/30 08:59:16;;;;;;;;;;;24.10;28.90;;;;;;479671;248;1012;-71
2021/10/30 09:01:18;;;;;;;;;;;24.20;29.00;;;;;;479660;248;1284;-71
2021/10/30 09:03:19;;;;;;;;;;;24.00;28.90;;;;;;479621;248;975;-71
2021/10/30 09:05:22;;;;;;;;;;;24.20;29.00;;;;;;479641;244;1195;-71
2021/10/30 09:07:22;;;;;;;;;;;24.20;28.90;;;;;;479471;248;1534;-71
2021/10/30 09:09:23;;;;;;;;;;;24.30;29.00;;;;;;479576;248;2170;-71
2021/10/30 09:11:25;;;;;;;;;;;24.00;29.10;;;;;;479509;248;1207;-71
2021/10/30 09:13:26;;;;;;;;;;;24.20;29.00;;;;;;479613;248;976;-71
2021/10/30 09:15:27;;;;;;;;;;;24.30;29.00;;;;;;479607;248;1233;-71
2021/10/30 09:17:29;;;;;;;;;;;24.10;29.10;;;;;;479627;248;1193;-71
2021/10/30 09:19:30;;;;;;;;;;;24.10;29.10;;;;;;479643;248;1091;-72
2021/10/30 09:21:32;;;;;;;;;;;24.30;29.10;;;;;;479572;245;1198;-71
2021/10/30 09:23:32;;;;;;;;;;;24.00;29.20;;;;;;479630;248;1810;-71
2021/10/30 09:25:34;;;;;;;;;;;24.40;29.10;;;;;;479588;248;1151;-71
2021/10/30 09:27:35;;;;;;;;;;;24.30;29.00;;;;;;479552;248;1170;-71
2021/10/30 09:29:36;;;;;;;;;;;23.90;29.20;;;;;;479664;248;2202;-71
2021/10/30 09:31:38;;;;;;;;;;;24.00;29.40;;;;;;479595;248;1280;-71
2021/10/30 09:33:39;;;;;;;;;;;24.20;29.30;;;;;;479628;248;980;-71
2021/10/30 09:35:41;;;;;;;;;;;24.00;29.60;;;;;;479733;248;1078;-71
2021/10/30 09:37:42;;;;;;;;;;;24.30;29.20;;;;;;479628;248;1051;-71
2021/10/30 09:39:43;;;;;;;;;;;24.20;29.30;;;;;;479622;248;993;-71
2021/10/30 09:41:45;;;;;;;;;;;24.30;29.30;;;;;;479550;246;1173;-71
2021/10/30 09:43:46;;;;;;;;;;;24.40;29.30;;;;;;479697;248;953;-71
2021/10/30 09:45:48;;;;;;;;;;;24.30;29.30;;;;;;479668;248;1237;-71
2021/10/30 09:47:49;;;;;;;;;;;24.30;29.30;;;;;;479605;248;1324;-71
2021/10/30 09:49:50;;;;;;;;;;;24.20;29.50;;;;;;479629;248;2209;-71
2021/10/30 09:51:51;;;;;;;;;;;24.20;29.50;;;;;;479530;248;1181;-71
2021/10/30 09:53:53;;;;;;;;;;;24.20;29.60;;;;;;479625;248;1066;-71
2021/10/30 09:55:54;;;;;;;;;;;24.10;29.70;;;;;;479628;248;1335;-71
2021/10/30 09:57:55;;;;;;;;;;;24.00;29.80;;;;;;479549;248;1188;-71
2021/10/30 09:59:57;;;;;;;;;;;23.80;30.00;;;;;;479629;248;1154;-71
2021/10/30 10:01:58;;;;;;;;;;;24.00;30.00;;;;;;479581;248;1143;-71
2021/10/30 10:03:59;;;;;;;;;;;24.00;30.00;;;;;;479581;248;1111;-71
2021/10/30 10:06:01;;;;;;;;;;;24.00;30.00;;;;;;479517;245;1159;-71
2021/10/30 10:08:02;;;;;;;;;;;24.10;29.90;;;;;;479572;248;1101;-71
2021/10/30 10:10:03;;;;;;;;;;;23.90;30.10;;;;;;479677;248;2134;-71
2021/10/30 10:12:05;;;;;;;;;;;23.90;30.20;;;;;;479539;248;1109;-71
2021/10/30 10:14:06;;;;;;;;;;;24.10;30.10;;;;;;479640;248;1128;-71
2021/10/30 10:16:07;;;;;;;;;;;24.10;30.20;;;;;;479664;245;1156;-71
2021/10/30 10:18:09;;;;;;;;;;;24.00;30.30;;;;;;479601;248;1095;-71
2021/10/30 10:20:10;;;;;;;;;;;24.10;30.30;;;;;;479639;248;943;-71
2021/10/30 10:22:11;;;;;;;;;;;23.80;30.70;;;;;;479609;248;1068;-71
2021/10/30 10:24:12;;;;;;;;;;;23.90;30.50;;;;;;479580;248;929;-71
2021/10/30 10:26:14;;;;;;;;;;;23.90;30.40;;;;;;479636;248;1236;-71
2021/10/30 10:28:15;;;;;;;;;;;23.90;30.70;;;;;;479614;248;1036;-71
2021/10/30 10:30:16;;;;;;;;;;;24.20;30.50;;;;;;479708;248;2189;-71
2021/10/30 10:32:18;;;;;;;;;;;24.10;30.50;;;;;;479644;248;1140;-71
2021/10/30 10:34:20;;;;;;;;;;;24.10;30.50;;;;;;479625;248;966;-71
2021/10/30 10:36:21;;;;;;;;;;;24.00;30.70;;;;;;479630;245;1201;-71
2021/10/30 10:38:22;;;;;;;;;;;24.10;30.80;;;;;;479651;248;1101;-71
2021/10/30 10:40:24;;;;;;;;;;;24.10;30.80;;;;;;479661;248;1327;-71
2021/10/30 10:42:25;;;;;;;;;;;24.00;30.90;;;;;;479532;248;1091;-71
2021/10/30 10:44:26;;;;;;;;;;;24.00;31.00;;;;;;479627;248;1002;-71
2021/10/30 10:46:28;;;;;;;;;;;24.00;31.20;;;;;;479544;248;1286;-71
2021/10/30 10:48:29;;;;;;;;;;;23.90;31.30;;;;;;479635;248;986;-71
2021/10/30 10:50:32;;;;;;;;;;;24.10;31.10;;;;;;479658;248;2153;-71
2021/10/30 10:52:32;;;;;;;;;;;24.10;31.20;;;;;;479532;248;1414;-71
2021/10/30 10:54:33;;;;;;;;;;;24.30;31.10;;;;;;479632;248;935;-71
2021/10/30 10:56:34;;;;;;;;;;;24.00;31.30;;;;;;479592;246;1222;-71
2021/10/30 10:58:36;;;;;;;;;;;24.10;31.40;;;;;;479667;248;941;-71
2021/10/30 11:00:37;;;;;;;;;;;23.90;31.60;;;;;;479711;248;1140;-71
2021/10/30 11:02:38;;;;;;;;;;;24.00;31.60;;;;;;479557;248;1342;-71
2021/10/30 11:04:40;;;;;;;;;;;24.10;31.60;;;;;;479627;248;956;-71
2021/10/30 11:06:46;;;;;;;;;;;24.00;31.80;;;;;;479483;248;1238;-71
2021/10/30 11:08:47;;;;;;;;;;;24.00;31.80;;;;;;479550;248;1097;-71
2021/10/30 11:10:48;;;;;;;;;;;23.90;32.00;;;;;;479586;248;2175;-71
2021/10/30 11:12:50;;;;;;;;;;;23.90;31.90;;;;;;479533;248;1119;-71
2021/10/30 11:14:51;;;;;;;;;;;24.00;32.20;;;;;;479663;248;1045;-71
2021/10/30 11:16:53;;;;;;;;;;;24.10;32.00;;;;;;479545;248;1399;-71
2021/10/30 11:18:58;;;;;;;;;;;24.10;32.00;;;;;;479553;248;1134;-71
2021/10/30 11:20:56;;;;;;;;;;;24.00;32.00;;;;;;479286;248;1424;-71
2021/10/30 11:22:57;;;;;;;;;;;24.30;31.90;;;;;;479517;248;1119;-71
2021/10/30 11:25:01;;;;;;;;;;;24.10;32.00;;;;;;479582;248;1067;-71
2021/10/30 11:27:01;;;;;;;;;;;23.70;32.60;;;;;;479476;248;1436;-71
2021/10/30 11:29:03;;;;;;;;;;;24.00;32.30;;;;;;479619;248;977;-71
2021/10/30 11:31:04;;;;;;;;;;;24.10;32.30;;;;;;479529;245;2198;-71
2021/10/30 11:33:05;;;;;;;;;;;24.00;32.30;;;;;;479610;248;1113;-71
2021/10/30 11:35:07;;;;;;;;;;;24.00;32.20;;;;;;479619;248;1020;-71
2021/10/30 11:37:08;;;;;;;;;;;24.10;32.30;;;;;;479522;248;1131;-71
2021/10/30 11:39:09;;;;;;;;;;;23.70;33.00;;;;;;479511;248;1085;-71
2021/10/30 11:41:11;;;;;;;;;;;24.20;32.50;;;;;;479511;248;1342;-71
2021/10/30 11:43:12;;;;;;;;;;;24.30;32.30;;;;;;479565;248;1034;-71
2021/10/30 11:45:13;;;;;;;;;;;24.30;32.20;;;;;;479668;248;1047;-71
2021/10/30 11:47:15;;;;;;;;;;;24.20;32.30;;;;;;479555;248;1191;-71
2021/10/30 11:49:16;;;;;;;;;;;24.30;32.40;;;;;;479625;248;949;-71
2021/10/30 11:51:17;;;;;;;;;;;24.30;32.30;;;;;;479536;248;2118;-71
2021/10/30 11:53:19;;;;;;;;;;;24.30;32.40;;;;;;479592;248;1160;-71
2021/10/30 11:55:20;;;;;;;;;;;24.30;32.50;;;;;;479567;248;1236;-71
2021/10/30 11:57:21;;;;;;;;;;;24.00;32.60;;;;;;479509;248;1025;-71